Terminal Aerodrome Forecast
Issued by NWS

Home | Current Version | Previous Version | Text Only | Print | Product List | Glossary On
Versions: 1 2 3 4 5 6 7 8 9 10 11 12 13
000
FTUS44 KLIX 292300
TAFMCB
TAF
KMCB 292332Z 3000/3024 13006KT P6SM VCSH SCT035 BKN110
      TEMPO 3000/3002 5SM -SHRA BKN035
     FM301000 12004KT 5SM BR BKN020
     FM301400 17009KT 6SM -SHRA BKN025 OVC050
      TEMPO 3017/3021 2SM TSRA BR BKN025CB=

USA.gov is the U.S. government's official web portal to all federal, state and local government web resources and services.